sensor_id;sensor_type;location;lat;lon;timestamp;P1;durP1;ratioP1;P2;durP2;ratioP2
39434;SDS011;66825;51.880;-0.518;2023-09-07T00:01:54;1.80;;;1.70;;
39434;SDS011;66825;51.880;-0.518;2023-09-07T00:04:20;2.00;;;1.90;;
39434;SDS011;66825;51.880;-0.518;2023-09-07T00:06:46;2.10;;;2.00;;
39434;SDS011;66825;51.880;-0.518;2023-09-07T00:09:12;1.83;;;1.73;;
39434;SDS011;66825;51.880;-0.518;2023-09-07T00:11:38;1.98;;;1.88;;
39434;SDS011;66825;51.880;-0.518;2023-09-07T00:14:04;2.20;;;2.10;;
39434;SDS011;66825;51.880;-0.518;2023-09-07T00:16:32;1.90;;;1.80;;
39434;SDS011;66825;51.880;-0.518;2023-09-07T00:19:00;2.00;;;1.90;;
39434;SDS011;66825;51.880;-0.518;2023-09-07T00:21:28;2.00;;;1.90;;
39434;SDS011;66825;51.880;-0.518;2023-09-07T00:23:53;2.05;;;1.95;;
39434;SDS011;66825;51.880;-0.518;2023-09-07T00:26:20;1.80;;;1.70;;
39434;SDS011;66825;51.880;-0.518;2023-09-07T00:28:45;1.90;;;1.80;;
39434;SDS011;66825;51.880;-0.518;2023-09-07T00:31:11;2.00;;;1.90;;
39434;SDS011;66825;51.880;-0.518;2023-09-07T00:33:36;2.20;;;1.83;;
39434;SDS011;66825;51.880;-0.518;2023-09-07T00:36:02;2.10;;;1.90;;
39434;SDS011;66825;51.880;-0.518;2023-09-07T00:38:28;2.03;;;1.83;;
39434;SDS011;66825;51.880;-0.518;2023-09-07T00:40:54;2.00;;;1.90;;
39434;SDS011;66825;51.880;-0.518;2023-09-07T00:43:19;1.85;;;1.75;;
39434;SDS011;66825;51.880;-0.518;2023-09-07T00:45:45;1.90;;;1.80;;
39434;SDS011;66825;51.880;-0.518;2023-09-07T00:48:11;1.90;;;1.80;;
39434;SDS011;66825;51.880;-0.518;2023-09-07T00:50:38;2.20;;;2.00;;
39434;SDS011;66825;51.880;-0.518;2023-09-07T00:53:04;1.70;;;1.60;;
39434;SDS011;66825;51.880;-0.518;2023-09-07T00:55:32;2.00;;;1.90;;
39434;SDS011;66825;51.880;-0.518;2023-09-07T00:58:00;1.80;;;1.70;;
39434;SDS011;66825;51.880;-0.518;2023-09-07T01:00:26;2.20;;;2.00;;
39434;SDS011;66825;51.880;-0.518;2023-09-07T01:02:52;1.77;;;1.67;;
39434;SDS011;66825;51.880;-0.518;2023-09-07T01:05:19;1.73;;;1.63;;
39434;SDS011;66825;51.880;-0.518;2023-09-07T01:07:51;1.80;;;1.70;;
39434;SDS011;66825;51.880;-0.518;2023-09-07T01:10:23;2.00;;;1.90;;
39434;SDS011;66825;51.880;-0.518;2023-09-07T01:12:48;1.80;;;1.70;;
39434;SDS011;66825;51.880;-0.518;2023-09-07T01:15:14;1.92;;;1.83;;
39434;SDS011;66825;51.880;-0.518;2023-09-07T01:17:39;1.85;;;1.75;;
39434;SDS011;66825;51.880;-0.518;2023-09-07T01:20:06;1.90;;;1.80;;
39434;SDS011;66825;51.880;-0.518;2023-09-07T01:22:35;1.85;;;1.75;;
39434;SDS011;66825;51.880;-0.518;2023-09-07T01:25:02;1.80;;;1.70;;
39434;SDS011;66825;51.880;-0.518;2023-09-07T01:27:28;1.90;;;1.80;;
39434;SDS011;66825;51.880;-0.518;2023-09-07T01:29:55;1.90;;;1.80;;
39434;SDS011;66825;51.880;-0.518;2023-09-07T01:32:20;1.95;;;1.85;;
39434;SDS011;66825;51.880;-0.518;2023-09-07T01:34:46;1.90;;;1.80;;
39434;SDS011;66825;51.880;-0.518;2023-09-07T01:37:11;1.75;;;1.65;;
39434;SDS011;66825;51.880;-0.518;2023-09-07T01:39:37;1.80;;;1.70;;
39434;SDS011;66825;51.880;-0.518;2023-09-07T01:42:02;1.88;;;1.77;;
39434;SDS011;66825;51.880;-0.518;2023-09-07T01:44:28;1.73;;;1.63;;
39434;SDS011;66825;51.880;-0.518;2023-09-07T01:46:54;1.92;;;1.83;;
39434;SDS011;66825;51.880;-0.518;2023-09-07T01:49:20;1.80;;;1.70;;
39434;SDS011;66825;51.880;-0.518;2023-09-07T01:51:46;1.70;;;1.58;;
39434;SDS011;66825;51.880;-0.518;2023-09-07T01:54:11;1.75;;;1.65;;
39434;SDS011;66825;51.880;-0.518;2023-09-07T01:56:37;1.83;;;1.73;;
39434;SDS011;66825;51.880;-0.518;2023-09-07T01:59:04;1.70;;;1.60;;
39434;SDS011;66825;51.880;-0.518;2023-09-07T02:01:30;1.60;;;1.50;;
39434;SDS011;66825;51.880;-0.518;2023-09-07T02:03:57;1.77;;;1.67;;
39434;SDS011;66825;51.880;-0.518;2023-09-07T02:06:22;1.75;;;1.65;;
39434;SDS011;66825;51.880;-0.518;2023-09-07T02:08:48;1.58;;;1.48;;
39434;SDS011;66825;51.880;-0.518;2023-09-07T02:11:14;1.83;;;1.73;;
39434;SDS011;66825;51.880;-0.518;2023-09-07T02:13:43;1.83;;;1.73;;
39434;SDS011;66825;51.880;-0.518;2023-09-07T02:16:11;1.70;;;1.60;;
39434;SDS011;66825;51.880;-0.518;2023-09-07T02:18:36;1.83;;;1.73;;
39434;SDS011;66825;51.880;-0.518;2023-09-07T02:21:08;1.77;;;1.67;;
39434;SDS011;66825;51.880;-0.518;2023-09-07T02:23:34;1.83;;;1.73;;
39434;SDS011;66825;51.880;-0.518;2023-09-07T02:26:01;1.70;;;1.60;;
39434;SDS011;66825;51.880;-0.518;2023-09-07T02:28:27;1.65;;;1.55;;
39434;SDS011;66825;51.880;-0.518;2023-09-07T02:30:53;1.83;;;1.73;;
39434;SDS011;66825;51.880;-0.518;2023-09-07T02:33:19;1.83;;;1.73;;
39434;SDS011;66825;51.880;-0.518;2023-09-07T02:35:47;1.80;;;1.70;;
39434;SDS011;66825;51.880;-0.518;2023-09-07T02:38:14;1.55;;;1.45;;
39434;SDS011;66825;51.880;-0.518;2023-09-07T02:40:43;1.90;;;1.80;;
39434;SDS011;66825;51.880;-0.518;2023-09-07T02:43:09;1.80;;;1.70;;
39434;SDS011;66825;51.880;-0.518;2023-09-07T02:45:35;1.75;;;1.65;;
39434;SDS011;66825;51.880;-0.518;2023-09-07T02:48:01;1.80;;;1.70;;
39434;SDS011;66825;51.880;-0.518;2023-09-07T02:50:29;1.70;;;1.60;;
39434;SDS011;66825;51.880;-0.518;2023-09-07T02:52:55;1.63;;;1.52;;
39434;SDS011;66825;51.880;-0.518;2023-09-07T02:55:20;1.60;;;1.50;;
39434;SDS011;66825;51.880;-0.518;2023-09-07T02:57:46;1.70;;;1.60;;
39434;SDS011;66825;51.880;-0.518;2023-09-07T03:00:11;1.70;;;1.60;;
39434;SDS011;66825;51.880;-0.518;2023-09-07T03:02:37;1.83;;;1.73;;
39434;SDS011;66825;51.880;-0.518;2023-09-07T03:05:03;1.70;;;1.60;;
39434;SDS011;66825;51.880;-0.518;2023-09-07T03:07:32;1.70;;;1.60;;
39434;SDS011;66825;51.880;-0.518;2023-09-07T03:09:58;1.80;;;1.70;;
39434;SDS011;66825;51.880;-0.518;2023-09-07T03:12:25;1.65;;;1.55;;
39434;SDS011;66825;51.880;-0.518;2023-09-07T03:14:50;2.00;;;1.90;;
39434;SDS011;66825;51.880;-0.518;2023-09-07T03:17:19;1.80;;;1.70;;
39434;SDS011;66825;51.880;-0.518;2023-09-07T03:19:48;1.73;;;1.63;;
39434;SDS011;66825;51.880;-0.518;2023-09-07T03:22:13;1.75;;;1.65;;
39434;SDS011;66825;51.880;-0.518;2023-09-07T03:24:39;1.80;;;1.70;;
39434;SDS011;66825;51.880;-0.518;2023-09-07T03:27:05;1.60;;;1.50;;
39434;SDS011;66825;51.880;-0.518;2023-09-07T03:29:31;1.60;;;1.50;;
39434;SDS011;66825;51.880;-0.518;2023-09-07T03:31:58;1.80;;;1.70;;
39434;SDS011;66825;51.880;-0.518;2023-09-07T03:34:25;1.60;;;1.50;;
39434;SDS011;66825;51.880;-0.518;2023-09-07T03:36:51;1.63;;;1.52;;
39434;SDS011;66825;51.880;-0.518;2023-09-07T03:39:16;1.73;;;1.63;;
39434;SDS011;66825;51.880;-0.518;2023-09-07T03:41:44;1.92;;;1.83;;
39434;SDS011;66825;51.880;-0.518;2023-09-07T03:44:09;1.60;;;1.50;;
39434;SDS011;66825;51.880;-0.518;2023-09-07T03:46:35;1.75;;;1.65;;
39434;SDS011;66825;51.880;-0.518;2023-09-07T03:49:01;1.80;;;1.70;;
39434;SDS011;66825;51.880;-0.518;2023-09-07T03:51:27;1.77;;;1.67;;
39434;SDS011;66825;51.880;-0.518;2023-09-07T03:53:52;1.75;;;1.65;;
39434;SDS011;66825;51.880;-0.518;2023-09-07T03:56:18;1.85;;;1.75;;
39434;SDS011;66825;51.880;-0.518;2023-09-07T03:58:43;1.98;;;1.80;;
39434;SDS011;66825;51.880;-0.518;2023-09-07T04:01:09;1.60;;;1.50;;
39434;SDS011;66825;51.880;-0.518;2023-09-07T04:03:35;1.63;;;1.52;;
39434;SDS011;66825;51.880;-0.518;2023-09-07T04:06:00;1.77;;;1.67;;
39434;SDS011;66825;51.880;-0.518;2023-09-07T04:08:26;1.85;;;1.75;;
39434;SDS011;66825;51.880;-0.518;2023-09-07T04:10:52;1.80;;;1.70;;
39434;SDS011;66825;51.880;-0.518;2023-09-07T04:13:17;1.70;;;1.60;;
39434;SDS011;66825;51.880;-0.518;2023-09-07T04:15:43;1.77;;;1.65;;
39434;SDS011;66825;51.880;-0.518;2023-09-07T04:18:10;1.63;;;1.52;;
39434;SDS011;66825;51.880;-0.518;2023-09-07T04:20:38;1.55;;;1.45;;
39434;SDS011;66825;51.880;-0.518;2023-09-07T04:23:04;1.63;;;1.52;;
39434;SDS011;66825;51.880;-0.518;2023-09-07T04:25:30;1.70;;;1.60;;
39434;SDS011;66825;51.880;-0.518;2023-09-07T04:27:57;1.70;;;1.60;;
39434;SDS011;66825;51.880;-0.518;2023-09-07T04:30:22;1.70;;;1.60;;
39434;SDS011;66825;51.880;-0.518;2023-09-07T04:32:48;1.77;;;1.67;;
39434;SDS011;66825;51.880;-0.518;2023-09-07T04:35:14;1.60;;;1.50;;
39434;SDS011;66825;51.880;-0.518;2023-09-07T04:37:41;1.65;;;1.55;;
39434;SDS011;66825;51.880;-0.518;2023-09-07T04:40:08;1.85;;;1.75;;
39434;SDS011;66825;51.880;-0.518;2023-09-07T04:42:34;1.55;;;1.45;;
39434;SDS011;66825;51.880;-0.518;2023-09-07T04:45:00;1.63;;;1.52;;
39434;SDS011;66825;51.880;-0.518;2023-09-07T04:47:25;1.95;;;1.50;;
39434;SDS011;66825;51.880;-0.518;2023-09-07T04:49:51;1.80;;;1.70;;
39434;SDS011;66825;51.880;-0.518;2023-09-07T04:52:17;1.95;;;1.85;;
39434;SDS011;66825;51.880;-0.518;2023-09-07T04:54:42;1.60;;;1.50;;
39434;SDS011;66825;51.880;-0.518;2023-09-07T04:57:08;1.70;;;1.60;;
39434;SDS011;66825;51.880;-0.518;2023-09-07T04:59:34;1.73;;;1.63;;
39434;SDS011;66825;51.880;-0.518;2023-09-07T05:02:00;1.80;;;1.70;;
39434;SDS011;66825;51.880;-0.518;2023-09-07T05:04:26;1.70;;;1.60;;
39434;SDS011;66825;51.880;-0.518;2023-09-07T05:06:55;1.80;;;1.70;;
39434;SDS011;66825;51.880;-0.518;2023-09-07T05:09:21;1.83;;;1.73;;
39434;SDS011;66825;51.880;-0.518;2023-09-07T05:11:48;1.63;;;1.52;;
39434;SDS011;66825;51.880;-0.518;2023-09-07T05:14:15;1.67;;;1.58;;
39434;SDS011;66825;51.880;-0.518;2023-09-07T05:16:43;1.77;;;1.67;;
39434;SDS011;66825;51.880;-0.518;2023-09-07T05:19:09;1.70;;;1.60;;
39434;SDS011;66825;51.880;-0.518;2023-09-07T05:21:34;1.67;;;1.58;;
39434;SDS011;66825;51.880;-0.518;2023-09-07T05:24:00;1.70;;;1.60;;
39434;SDS011;66825;51.880;-0.518;2023-09-07T05:26:25;1.60;;;1.50;;
39434;SDS011;66825;51.880;-0.518;2023-09-07T05:28:51;1.60;;;1.50;;
39434;SDS011;66825;51.880;-0.518;2023-09-07T05:31:16;1.70;;;1.60;;
39434;SDS011;66825;51.880;-0.518;2023-09-07T05:33:42;1.70;;;1.60;;
39434;SDS011;66825;51.880;-0.518;2023-09-07T05:36:07;1.60;;;1.50;;
39434;SDS011;66825;51.880;-0.518;2023-09-07T05:38:35;1.70;;;1.60;;
39434;SDS011;66825;51.880;-0.518;2023-09-07T05:41:00;1.60;;;1.50;;
39434;SDS011;66825;51.880;-0.518;2023-09-07T05:43:25;1.80;;;1.70;;
39434;SDS011;66825;51.880;-0.518;2023-09-07T05:45:51;1.65;;;1.55;;
39434;SDS011;66825;51.880;-0.518;2023-09-07T05:48:16;1.70;;;1.60;;
39434;SDS011;66825;51.880;-0.518;2023-09-07T05:50:42;1.75;;;1.65;;
39434;SDS011;66825;51.880;-0.518;2023-09-07T05:53:08;1.67;;;1.58;;
39434;SDS011;66825;51.880;-0.518;2023-09-07T05:55:34;1.67;;;1.58;;
39434;SDS011;66825;51.880;-0.518;2023-09-07T05:57:59;1.80;;;1.70;;
39434;SDS011;66825;51.880;-0.518;2023-09-07T06:00:25;1.77;;;1.67;;
39434;SDS011;66825;51.880;-0.518;2023-09-07T06:02:52;1.63;;;1.52;;
39434;SDS011;66825;51.880;-0.518;2023-09-07T06:05:18;1.80;;;1.70;;
39434;SDS011;66825;51.880;-0.518;2023-09-07T06:07:44;1.73;;;1.63;;
39434;SDS011;66825;51.880;-0.518;2023-09-07T06:10:10;1.45;;;1.35;;
39434;SDS011;66825;51.880;-0.518;2023-09-07T06:12:36;1.65;;;1.55;;
39434;SDS011;66825;51.880;-0.518;2023-09-07T06:15:02;1.63;;;1.52;;
39434;SDS011;66825;51.880;-0.518;2023-09-07T06:17:28;1.63;;;1.52;;
39434;SDS011;66825;51.880;-0.518;2023-09-07T06:19:54;1.60;;;1.50;;
39434;SDS011;66825;51.880;-0.518;2023-09-07T06:22:20;1.77;;;1.67;;
39434;SDS011;66825;51.880;-0.518;2023-09-07T06:24:46;1.60;;;1.50;;
39434;SDS011;66825;51.880;-0.518;2023-09-07T06:27:11;1.80;;;1.70;;
39434;SDS011;66825;51.880;-0.518;2023-09-07T06:29:37;1.60;;;1.50;;
39434;SDS011;66825;51.880;-0.518;2023-09-07T06:32:02;1.80;;;1.70;;
39434;SDS011;66825;51.880;-0.518;2023-09-07T06:34:28;1.70;;;1.60;;
39434;SDS011;66825;51.880;-0.518;2023-09-07T06:36:54;1.60;;;1.50;;
39434;SDS011;66825;51.880;-0.518;2023-09-07T06:39:19;1.70;;;1.60;;
39434;SDS011;66825;51.880;-0.518;2023-09-07T06:41:47;1.60;;;1.50;;
39434;SDS011;66825;51.880;-0.518;2023-09-07T06:44:13;1.90;;;1.80;;
39434;SDS011;66825;51.880;-0.518;2023-09-07T06:46:39;1.60;;;1.50;;
39434;SDS011;66825;51.880;-0.518;2023-09-07T06:49:04;1.67;;;1.58;;
39434;SDS011;66825;51.880;-0.518;2023-09-07T06:51:30;1.67;;;1.58;;
39434;SDS011;66825;51.880;-0.518;2023-09-07T06:53:56;1.58;;;1.48;;
39434;SDS011;66825;51.880;-0.518;2023-09-07T06:56:22;1.52;;;1.42;;
39434;SDS011;66825;51.880;-0.518;2023-09-07T06:58:47;1.70;;;1.60;;
39434;SDS011;66825;51.880;-0.518;2023-09-07T07:01:13;1.60;;;1.50;;
39434;SDS011;66825;51.880;-0.518;2023-09-07T07:03:38;1.70;;;1.60;;
39434;SDS011;66825;51.880;-0.518;2023-09-07T07:06:04;1.60;;;1.50;;
39434;SDS011;66825;51.880;-0.518;2023-09-07T07:08:29;1.77;;;1.67;;
39434;SDS011;66825;51.880;-0.518;2023-09-07T07:10:55;2.17;;;1.60;;
39434;SDS011;66825;51.880;-0.518;2023-09-07T07:13:20;1.80;;;1.70;;
39434;SDS011;66825;51.880;-0.518;2023-09-07T07:15:46;1.60;;;1.50;;
39434;SDS011;66825;51.880;-0.518;2023-09-07T07:18:13;1.70;;;1.60;;
39434;SDS011;66825;51.880;-0.518;2023-09-07T07:20:39;1.60;;;1.50;;
39434;SDS011;66825;51.880;-0.518;2023-09-07T07:23:05;1.70;;;1.60;;
39434;SDS011;66825;51.880;-0.518;2023-09-07T07:25:33;1.63;;;1.52;;
39434;SDS011;66825;51.880;-0.518;2023-09-07T07:27:59;1.73;;;1.63;;
39434;SDS011;66825;51.880;-0.518;2023-09-07T07:30:29;1.80;;;1.70;;
39434;SDS011;66825;51.880;-0.518;2023-09-07T07:32:55;1.80;;;1.70;;
39434;SDS011;66825;51.880;-0.518;2023-09-07T07:35:22;1.90;;;1.80;;
39434;SDS011;66825;51.880;-0.518;2023-09-07T07:37:52;5.05;;;4.65;;
39434;SDS011;66825;51.880;-0.518;2023-09-07T07:40:17;9.23;;;8.43;;
39434;SDS011;66825;51.880;-0.518;2023-09-07T07:42:47;12.32;;;11.13;;
39434;SDS011;66825;51.880;-0.518;2023-09-07T07:45:13;12.88;;;11.70;;
39434;SDS011;66825;51.880;-0.518;2023-09-07T07:47:39;15.77;;;14.18;;
39434;SDS011;66825;51.880;-0.518;2023-09-07T07:50:06;15.60;;;14.20;;
39434;SDS011;66825;51.880;-0.518;2023-09-07T07:52:32;16.02;;;14.43;;
39434;SDS011;66825;51.880;-0.518;2023-09-07T07:54:57;15.80;;;14.25;;
39434;SDS011;66825;51.880;-0.518;2023-09-07T07:57:23;16.08;;;14.55;;
39434;SDS011;66825;51.880;-0.518;2023-09-07T07:59:48;18.45;;;16.58;;
39434;SDS011;66825;51.880;-0.518;2023-09-07T08:02:14;18.55;;;16.65;;
39434;SDS011;66825;51.880;-0.518;2023-09-07T08:04:40;16.92;;;15.32;;
39434;SDS011;66825;51.880;-0.518;2023-09-07T08:07:06;17.88;;;16.08;;
39434;SDS011;66825;51.880;-0.518;2023-09-07T08:09:33;17.65;;;15.95;;
39434;SDS011;66825;51.880;-0.518;2023-09-07T08:11:59;17.08;;;15.32;;
39434;SDS011;66825;51.880;-0.518;2023-09-07T08:14:28;17.65;;;15.88;;
39434;SDS011;66825;51.880;-0.518;2023-09-07T08:16:54;18.33;;;16.05;;
39434;SDS011;66825;51.880;-0.518;2023-09-07T08:19:19;17.42;;;15.82;;
39434;SDS011;66825;51.880;-0.518;2023-09-07T08:21:45;16.33;;;14.70;;
39434;SDS011;66825;51.880;-0.518;2023-09-07T08:24:11;17.17;;;15.48;;
39434;SDS011;66825;51.880;-0.518;2023-09-07T08:26:38;17.05;;;15.48;;
39434;SDS011;66825;51.880;-0.518;2023-09-07T08:29:04;15.32;;;13.82;;
39434;SDS011;66825;51.880;-0.518;2023-09-07T08:31:37;17.27;;;15.20;;
39434;SDS011;66825;51.880;-0.518;2023-09-07T08:34:06;20.73;;;16.10;;
39434;SDS011;66825;51.880;-0.518;2023-09-07T08:36:34;19.17;;;14.88;;
39434;SDS011;66825;51.880;-0.518;2023-09-07T08:39:03;15.65;;;13.93;;
39434;SDS011;66825;51.880;-0.518;2023-09-07T08:41:39;19.75;;;14.13;;
39434;SDS011;66825;51.880;-0.518;2023-09-07T08:44:21;19.30;;;14.25;;
39434;SDS011;66825;51.880;-0.518;2023-09-07T08:46:49;14.18;;;11.98;;
39434;SDS011;66825;51.880;-0.518;2023-09-07T08:49:15;13.98;;;11.70;;
39434;SDS011;66825;51.880;-0.518;2023-09-07T08:51:44;11.18;;;9.98;;
39434;SDS011;66825;51.880;-0.518;2023-09-07T08:54:10;13.73;;;11.10;;
39434;SDS011;66825;51.880;-0.518;2023-09-07T08:56:38;15.25;;;10.60;;
39434;SDS011;66825;51.880;-0.518;2023-09-07T08:59:03;27.85;;;10.38;;
39434;SDS011;66825;51.880;-0.518;2023-09-07T09:01:32;22.38;;;10.73;;
39434;SDS011;66825;51.880;-0.518;2023-09-07T09:03:58;18.58;;;10.57;;
39434;SDS011;66825;51.880;-0.518;2023-09-07T09:06:24;19.67;;;9.75;;
39434;SDS011;66825;51.880;-0.518;2023-09-07T09:08:51;12.82;;;9.00;;
39434;SDS011;66825;51.880;-0.518;2023-09-07T09:11:18;15.63;;;9.02;;
39434;SDS011;66825;51.880;-0.518;2023-09-07T09:13:44;16.10;;;8.90;;
39434;SDS011;66825;51.880;-0.518;2023-09-07T09:16:12;17.98;;;8.00;;
39434;SDS011;66825;51.880;-0.518;2023-09-07T09:18:50;14.57;;;8.27;;
39434;SDS011;66825;51.880;-0.518;2023-09-07T09:21:20;13.73;;;8.55;;
39434;SDS011;66825;51.880;-0.518;2023-09-07T09:23:54;12.40;;;8.60;;
39434;SDS011;66825;51.880;-0.518;2023-09-07T09:26:21;12.57;;;8.48;;
39434;SDS011;66825;51.880;-0.518;2023-09-07T09:28:48;12.20;;;8.27;;
39434;SDS011;66825;51.880;-0.518;2023-09-07T09:31:16;10.95;;;7.20;;
39434;SDS011;66825;51.880;-0.518;2023-09-07T09:33:42;10.52;;;7.65;;
39434;SDS011;66825;51.880;-0.518;2023-09-07T09:36:12;7.75;;;6.65;;
39434;SDS011;66825;51.880;-0.518;2023-09-07T09:38:39;10.30;;;7.07;;
39434;SDS011;66825;51.880;-0.518;2023-09-07T09:41:05;8.15;;;6.72;;
39434;SDS011;66825;51.880;-0.518;2023-09-07T09:43:31;12.52;;;8.85;;
39434;SDS011;66825;51.880;-0.518;2023-09-07T09:45:57;10.82;;;8.18;;
39434;SDS011;66825;51.880;-0.518;2023-09-07T09:48:25;10.48;;;7.40;;
39434;SDS011;66825;51.880;-0.518;2023-09-07T09:50:52;11.85;;;7.90;;
39434;SDS011;66825;51.880;-0.518;2023-09-07T09:53:18;10.15;;;6.90;;
39434;SDS011;66825;51.880;-0.518;2023-09-07T09:55:49;9.18;;;6.43;;
39434;SDS011;66825;51.880;-0.518;2023-09-07T09:58:17;12.90;;;6.57;;
39434;SDS011;66825;51.880;-0.518;2023-09-07T10:00:43;12.18;;;7.15;;
39434;SDS011;66825;51.880;-0.518;2023-09-07T10:05:52;8.55;;;5.70;;
39434;SDS011;66825;51.880;-0.518;2023-09-07T10:08:19;6.57;;;5.15;;
39434;SDS011;66825;51.880;-0.518;2023-09-07T10:10:48;7.03;;;5.15;;
39434;SDS011;66825;51.880;-0.518;2023-09-07T10:13:28;9.45;;;5.80;;
39434;SDS011;66825;51.880;-0.518;2023-09-07T10:16:01;12.55;;;7.72;;
39434;SDS011;66825;51.880;-0.518;2023-09-07T10:18:38;8.15;;;6.15;;
39434;SDS011;66825;51.880;-0.518;2023-09-07T10:21:04;9.82;;;7.00;;
39434;SDS011;66825;51.880;-0.518;2023-09-07T10:23:43;9.88;;;7.00;;
39434;SDS011;66825;51.880;-0.518;2023-09-07T10:26:14;7.93;;;5.70;;
39434;SDS011;66825;51.880;-0.518;2023-09-07T10:28:41;6.85;;;5.80;;
39434;SDS011;66825;51.880;-0.518;2023-09-07T10:31:14;8.43;;;5.93;;
39434;SDS011;66825;51.880;-0.518;2023-09-07T10:33:41;11.82;;;7.35;;
39434;SDS011;66825;51.880;-0.518;2023-09-07T10:36:07;7.97;;;5.93;;
39434;SDS011;66825;51.880;-0.518;2023-09-07T10:38:35;8.98;;;6.82;;
39434;SDS011;66825;51.880;-0.518;2023-09-07T10:41:02;12.50;;;7.00;;
39434;SDS011;66825;51.880;-0.518;2023-09-07T10:43:30;8.63;;;5.28;;
39434;SDS011;66825;51.880;-0.518;2023-09-07T10:45:58;8.07;;;5.57;;
39434;SDS011;66825;51.880;-0.518;2023-09-07T10:48:25;5.95;;;5.03;;
39434;SDS011;66825;51.880;-0.518;2023-09-07T10:50:56;5.53;;;4.88;;
39434;SDS011;66825;51.880;-0.518;2023-09-07T10:53:31;7.75;;;6.35;;
39434;SDS011;66825;51.880;-0.518;2023-09-07T10:56:04;7.13;;;5.10;;
39434;SDS011;66825;51.880;-0.518;2023-09-07T10:58:34;7.50;;;4.88;;
39434;SDS011;66825;51.880;-0.518;2023-09-07T11:01:01;7.88;;;5.20;;
39434;SDS011;66825;51.880;-0.518;2023-09-07T11:03:30;9.00;;;5.60;;
39434;SDS011;66825;51.880;-0.518;2023-09-07T11:06:15;5.47;;;4.90;;
39434;SDS011;66825;51.880;-0.518;2023-09-07T11:08:48;6.22;;;5.05;;
39434;SDS011;66825;51.880;-0.518;2023-09-07T11:11:13;7.65;;;5.75;;
39434;SDS011;66825;51.880;-0.518;2023-09-07T11:13:39;8.90;;;5.78;;
39434;SDS011;66825;51.880;-0.518;2023-09-07T11:16:07;11.20;;;6.53;;
39434;SDS011;66825;51.880;-0.518;2023-09-07T11:18:34;8.32;;;5.18;;
39434;SDS011;66825;51.880;-0.518;2023-09-07T11:21:03;6.10;;;4.53;;
39434;SDS011;66825;51.880;-0.518;2023-09-07T11:23:31;10.07;;;5.57;;
39434;SDS011;66825;51.880;-0.518;2023-09-07T11:26:07;8.30;;;5.78;;
39434;SDS011;66825;51.880;-0.518;2023-09-07T11:28:33;10.00;;;6.00;;
39434;SDS011;66825;51.880;-0.518;2023-09-07T11:30:59;10.35;;;6.30;;
39434;SDS011;66825;51.880;-0.518;2023-09-07T11:33:25;9.35;;;6.22;;
39434;SDS011;66825;51.880;-0.518;2023-09-07T11:35:52;6.68;;;5.38;;
39434;SDS011;66825;51.880;-0.518;2023-09-07T11:38:21;9.85;;;5.78;;
39434;SDS011;66825;51.880;-0.518;2023-09-07T11:40:47;15.00;;;6.45;;
39434;SDS011;66825;51.880;-0.518;2023-09-07T11:43:13;11.20;;;5.90;;
39434;SDS011;66825;51.880;-0.518;2023-09-07T11:45:40;10.45;;;6.40;;
39434;SDS011;66825;51.880;-0.518;2023-09-07T11:48:06;10.48;;;6.22;;
39434;SDS011;66825;51.880;-0.518;2023-09-07T11:50:34;11.35;;;6.65;;
39434;SDS011;66825;51.880;-0.518;2023-09-07T11:53:00;9.55;;;6.47;;
39434;SDS011;66825;51.880;-0.518;2023-09-07T11:55:26;8.57;;;6.07;;
39434;SDS011;66825;51.880;-0.518;2023-09-07T11:57:51;8.48;;;5.80;;
39434;SDS011;66825;51.880;-0.518;2023-09-07T12:00:17;13.05;;;6.15;;
39434;SDS011;66825;51.880;-0.518;2023-09-07T12:02:43;8.15;;;5.28;;
39434;SDS011;66825;51.880;-0.518;2023-09-07T12:05:09;6.68;;;5.40;;
39434;SDS011;66825;51.880;-0.518;2023-09-07T12:07:38;8.63;;;5.90;;
39434;SDS011;66825;51.880;-0.518;2023-09-07T12:10:03;8.55;;;5.53;;
39434;SDS011;66825;51.880;-0.518;2023-09-07T12:12:29;8.63;;;5.25;;
39434;SDS011;66825;51.880;-0.518;2023-09-07T12:14:55;7.30;;;5.07;;
39434;SDS011;66825;51.880;-0.518;2023-09-07T12:17:24;8.63;;;4.97;;
39434;SDS011;66825;51.880;-0.518;2023-09-07T12:19:50;7.85;;;5.10;;
39434;SDS011;66825;51.880;-0.518;2023-09-07T12:22:15;6.13;;;4.28;;
39434;SDS011;66825;51.880;-0.518;2023-09-07T12:24:41;5.20;;;4.18;;
39434;SDS011;66825;51.880;-0.518;2023-09-07T12:27:06;4.35;;;3.83;;
39434;SDS011;66825;51.880;-0.518;2023-09-07T12:29:32;6.80;;;4.28;;
39434;SDS011;66825;51.880;-0.518;2023-09-07T12:31:57;6.93;;;4.10;;
39434;SDS011;66825;51.880;-0.518;2023-09-07T12:34:23;4.38;;;3.97;;
39434;SDS011;66825;51.880;-0.518;2023-09-07T12:36:50;4.20;;;3.58;;
39434;SDS011;66825;51.880;-0.518;2023-09-07T12:39:16;4.97;;;3.75;;
39434;SDS011;66825;51.880;-0.518;2023-09-07T12:41:42;6.68;;;3.90;;
39434;SDS011;66825;51.880;-0.518;2023-09-07T12:44:08;5.95;;;3.92;;
39434;SDS011;66825;51.880;-0.518;2023-09-07T12:46:34;8.13;;;3.70;;
39434;SDS011;66825;51.880;-0.518;2023-09-07T12:49:00;6.25;;;4.05;;
39434;SDS011;66825;51.880;-0.518;2023-09-07T12:51:26;5.85;;;3.90;;
39434;SDS011;66825;51.880;-0.518;2023-09-07T12:53:51;4.78;;;3.88;;
39434;SDS011;66825;51.880;-0.518;2023-09-07T12:56:17;7.03;;;4.20;;
39434;SDS011;66825;51.880;-0.518;2023-09-07T12:58:43;4.60;;;4.03;;
39434;SDS011;66825;51.880;-0.518;2023-09-07T13:01:09;6.60;;;4.35;;
39434;SDS011;66825;51.880;-0.518;2023-09-07T13:03:38;7.72;;;3.83;;
39434;SDS011;66825;51.880;-0.518;2023-09-07T13:06:04;4.63;;;3.70;;
39434;SDS011;66825;51.880;-0.518;2023-09-07T13:08:29;5.50;;;3.80;;
39434;SDS011;66825;51.880;-0.518;2023-09-07T13:10:55;4.35;;;3.55;;
39434;SDS011;66825;51.880;-0.518;2023-09-07T13:13:22;5.25;;;3.50;;
39434;SDS011;66825;51.880;-0.518;2023-09-07T13:15:50;6.20;;;3.75;;
39434;SDS011;66825;51.880;-0.518;2023-09-07T13:18:15;5.38;;;3.70;;
39434;SDS011;66825;51.880;-0.518;2023-09-07T13:20:41;4.70;;;3.50;;
39434;SDS011;66825;51.880;-0.518;2023-09-07T13:23:07;5.72;;;3.55;;
39434;SDS011;66825;51.880;-0.518;2023-09-07T13:25:32;6.93;;;3.38;;
39434;SDS011;66825;51.880;-0.518;2023-09-07T13:27:58;4.80;;;3.55;;
39434;SDS011;66825;51.880;-0.518;2023-09-07T13:30:23;5.28;;;3.60;;
39434;SDS011;66825;51.880;-0.518;2023-09-07T13:32:49;5.03;;;3.35;;
39434;SDS011;66825;51.880;-0.518;2023-09-07T13:35:15;3.47;;;3.17;;
39434;SDS011;66825;51.880;-0.518;2023-09-07T13:37:41;7.00;;;3.70;;
39434;SDS011;66825;51.880;-0.518;2023-09-07T13:40:07;5.15;;;3.40;;
39434;SDS011;66825;51.880;-0.518;2023-09-07T13:42:33;5.45;;;3.80;;
39434;SDS011;66825;51.880;-0.518;2023-09-07T13:44:58;4.80;;;3.55;;
39434;SDS011;66825;51.880;-0.518;2023-09-07T13:47:24;3.35;;;3.05;;
39434;SDS011;66825;51.880;-0.518;2023-09-07T13:49:49;4.93;;;3.05;;
39434;SDS011;66825;51.880;-0.518;2023-09-07T13:52:15;4.97;;;3.30;;
39434;SDS011;66825;51.880;-0.518;2023-09-07T13:54:40;4.05;;;3.13;;
39434;SDS011;66825;51.880;-0.518;2023-09-07T13:57:06;4.90;;;3.20;;
39434;SDS011;66825;51.880;-0.518;2023-09-07T13:59:31;4.03;;;3.03;;
39434;SDS011;66825;51.880;-0.518;2023-09-07T14:01:59;7.15;;;3.75;;
39434;SDS011;66825;51.880;-0.518;2023-09-07T14:04:26;6.68;;;3.60;;
39434;SDS011;66825;51.880;-0.518;2023-09-07T14:06:52;5.50;;;3.50;;
39434;SDS011;66825;51.880;-0.518;2023-09-07T14:09:17;4.60;;;2.92;;
39434;SDS011;66825;51.880;-0.518;2023-09-07T14:11:43;5.70;;;3.20;;
39434;SDS011;66825;51.880;-0.518;2023-09-07T14:14:09;3.95;;;2.90;;
39434;SDS011;66825;51.880;-0.518;2023-09-07T14:16:35;4.78;;;3.20;;
39434;SDS011;66825;51.880;-0.518;2023-09-07T14:19:01;2.80;;;2.60;;
39434;SDS011;66825;51.880;-0.518;2023-09-07T14:21:27;5.20;;;2.50;;
39434;SDS011;66825;51.880;-0.518;2023-09-07T14:23:52;3.08;;;2.70;;
39434;SDS011;66825;51.880;-0.518;2023-09-07T14:26:18;4.28;;;3.25;;
39434;SDS011;66825;51.880;-0.518;2023-09-07T14:28:44;3.28;;;2.90;;
39434;SDS011;66825;51.880;-0.518;2023-09-07T14:31:09;4.15;;;3.20;;